sensor_id;sensor_type;location;lat;lon;timestamp;P1;durP1;ratioP1;P2;durP2;ratioP2
74612;SDS011;63119;51.788;8.824;2023-11-18T00:01:43;63.88;;;20.50;;
74612;SDS011;63119;51.788;8.824;2023-11-18T00:04:08;53.47;;;20.60;;
74612;SDS011;63119;51.788;8.824;2023-11-18T00:06:40;62.95;;;20.25;;
74612;SDS011;63119;51.788;8.824;2023-11-18T00:09:06;61.53;;;21.98;;
74612;SDS011;63119;51.788;8.824;2023-11-18T00:11:31;62.23;;;22.07;;
74612;SDS011;63119;51.788;8.824;2023-11-18T00:13:56;58.63;;;20.07;;
74612;SDS011;63119;51.788;8.824;2023-11-18T00:16:22;52.15;;;19.40;;
74612;SDS011;63119;51.788;8.824;2023-11-18T00:18:47;62.95;;;21.60;;
74612;SDS011;63119;51.788;8.824;2023-11-18T00:21:13;60.88;;;20.38;;
74612;SDS011;63119;51.788;8.824;2023-11-18T00:23:38;63.10;;;21.27;;
74612;SDS011;63119;51.788;8.824;2023-11-18T00:26:04;65.93;;;21.30;;
74612;SDS011;63119;51.788;8.824;2023-11-18T00:28:32;64.85;;;19.95;;
74612;SDS011;63119;51.788;8.824;2023-11-18T00:30:57;66.67;;;21.13;;
74612;SDS011;63119;51.788;8.824;2023-11-18T00:33:22;56.00;;;19.63;;
74612;SDS011;63119;51.788;8.824;2023-11-18T00:35:47;53.47;;;19.13;;
74612;SDS011;63119;51.788;8.824;2023-11-18T00:38:13;67.57;;;21.80;;
74612;SDS011;63119;51.788;8.824;2023-11-18T00:40:38;63.90;;;21.10;;
74612;SDS011;63119;51.788;8.824;2023-11-18T00:43:03;63.97;;;19.60;;
74612;SDS011;63119;51.788;8.824;2023-11-18T00:45:28;71.03;;;21.03;;
74612;SDS011;63119;51.788;8.824;2023-11-18T00:47:54;66.13;;;21.20;;
74612;SDS011;63119;51.788;8.824;2023-11-18T00:50:19;56.05;;;20.15;;
74612;SDS011;63119;51.788;8.824;2023-11-18T00:52:44;57.93;;;19.10;;
74612;SDS011;63119;51.788;8.824;2023-11-18T00:55:13;52.92;;;19.52;;
74612;SDS011;63119;51.788;8.824;2023-11-18T00:57:38;53.33;;;19.03;;
74612;SDS011;63119;51.788;8.824;2023-11-18T01:00:07;53.47;;;18.42;;
74612;SDS011;63119;51.788;8.824;2023-11-18T01:02:34;61.05;;;19.50;;
74612;SDS011;63119;51.788;8.824;2023-11-18T01:04:59;55.07;;;18.77;;
74612;SDS011;63119;51.788;8.824;2023-11-18T01:07:25;54.70;;;18.63;;
74612;SDS011;63119;51.788;8.824;2023-11-18T01:09:50;59.03;;;18.97;;
74612;SDS011;63119;51.788;8.824;2023-11-18T01:12:15;50.57;;;17.67;;
74612;SDS011;63119;51.788;8.824;2023-11-18T01:14:40;50.70;;;16.93;;
74612;SDS011;63119;51.788;8.824;2023-11-18T01:17:06;50.72;;;18.30;;
74612;SDS011;63119;51.788;8.824;2023-11-18T01:19:32;47.70;;;17.77;;
74612;SDS011;63119;51.788;8.824;2023-11-18T01:21:58;47.65;;;18.38;;
74612;SDS011;63119;51.788;8.824;2023-11-18T01:24:24;50.35;;;16.95;;
74612;SDS011;63119;51.788;8.824;2023-11-18T01:26:49;49.70;;;16.63;;
74612;SDS011;63119;51.788;8.824;2023-11-18T01:29:14;54.70;;;19.97;;
74612;SDS011;63119;51.788;8.824;2023-11-18T01:31:40;52.40;;;19.47;;
74612;SDS011;63119;51.788;8.824;2023-11-18T01:34:06;57.97;;;19.45;;
74612;SDS011;63119;51.788;8.824;2023-11-18T01:36:32;58.17;;;19.83;;
74612;SDS011;63119;51.788;8.824;2023-11-18T01:38:57;60.65;;;18.95;;
74612;SDS011;63119;51.788;8.824;2023-11-18T01:41:23;49.20;;;18.45;;
74612;SDS011;63119;51.788;8.824;2023-11-18T01:43:48;51.55;;;18.30;;
74612;SDS011;63119;51.788;8.824;2023-11-18T01:46:14;47.65;;;17.85;;
74612;SDS011;63119;51.788;8.824;2023-11-18T01:48:41;43.85;;;16.15;;
74612;SDS011;63119;51.788;8.824;2023-11-18T01:51:07;46.42;;;16.63;;
74612;SDS011;63119;51.788;8.824;2023-11-18T01:53:37;43.22;;;16.15;;
74612;SDS011;63119;51.788;8.824;2023-11-18T01:56:05;43.53;;;16.50;;
74612;SDS011;63119;51.788;8.824;2023-11-18T01:58:32;45.25;;;16.02;;
74612;SDS011;63119;51.788;8.824;2023-11-18T02:00:57;42.28;;;16.00;;
74612;SDS011;63119;51.788;8.824;2023-11-18T02:03:23;52.30;;;17.02;;
74612;SDS011;63119;51.788;8.824;2023-11-18T02:05:50;50.67;;;17.25;;
74612;SDS011;63119;51.788;8.824;2023-11-18T02:08:16;42.92;;;15.77;;
74612;SDS011;63119;51.788;8.824;2023-11-18T02:10:49;46.65;;;16.48;;
74612;SDS011;63119;51.788;8.824;2023-11-18T02:13:22;41.15;;;15.10;;
74612;SDS011;63119;51.788;8.824;2023-11-18T02:15:52;42.67;;;17.05;;
74612;SDS011;63119;51.788;8.824;2023-11-18T02:18:20;43.90;;;17.00;;
74612;SDS011;63119;51.788;8.824;2023-11-18T02:20:47;44.67;;;16.90;;
74612;SDS011;63119;51.788;8.824;2023-11-18T02:23:12;41.90;;;15.23;;
74612;SDS011;63119;51.788;8.824;2023-11-18T02:25:48;41.85;;;15.60;;
74612;SDS011;63119;51.788;8.824;2023-11-18T02:28:14;52.55;;;16.63;;
74612;SDS011;63119;51.788;8.824;2023-11-18T02:30:40;38.83;;;15.57;;
74612;SDS011;63119;51.788;8.824;2023-11-18T02:33:09;39.58;;;14.15;;
74612;SDS011;63119;51.788;8.824;2023-11-18T02:35:41;41.13;;;15.45;;
74612;SDS011;63119;51.788;8.824;2023-11-18T02:38:14;38.30;;;13.20;;
74612;SDS011;63119;51.788;8.824;2023-11-18T02:40:43;35.60;;;13.80;;
74612;SDS011;63119;51.788;8.824;2023-11-18T02:43:10;38.53;;;12.75;;
74612;SDS011;63119;51.788;8.824;2023-11-18T02:45:36;34.53;;;12.75;;
74612;SDS011;63119;51.788;8.824;2023-11-18T02:48:02;36.42;;;12.80;;
74612;SDS011;63119;51.788;8.824;2023-11-18T02:50:29;30.40;;;12.55;;
74612;SDS011;63119;51.788;8.824;2023-11-18T02:52:54;35.87;;;11.90;;
74612;SDS011;63119;51.788;8.824;2023-11-18T02:55:20;32.58;;;13.25;;
74612;SDS011;63119;51.788;8.824;2023-11-18T02:57:47;31.30;;;12.80;;
74612;SDS011;63119;51.788;8.824;2023-11-18T03:00:13;25.92;;;11.00;;
74612;SDS011;63119;51.788;8.824;2023-11-18T03:02:48;27.83;;;12.23;;
74612;SDS011;63119;51.788;8.824;2023-11-18T03:10:07;31.48;;;11.30;;
74612;SDS011;63119;51.788;8.824;2023-11-18T03:12:36;35.30;;;13.43;;
74612;SDS011;63119;51.788;8.824;2023-11-18T03:15:03;30.52;;;12.05;;
74612;SDS011;63119;51.788;8.824;2023-11-18T03:17:30;31.52;;;12.27;;
74612;SDS011;63119;51.788;8.824;2023-11-18T03:19:55;30.10;;;10.67;;
74612;SDS011;63119;51.788;8.824;2023-11-18T03:22:21;30.23;;;11.83;;
74612;SDS011;63119;51.788;8.824;2023-11-18T03:24:48;27.92;;;11.05;;
74612;SDS011;63119;51.788;8.824;2023-11-18T03:27:14;26.35;;;11.23;;
74612;SDS011;63119;51.788;8.824;2023-11-18T03:29:40;26.43;;;10.77;;
74612;SDS011;63119;51.788;8.824;2023-11-18T03:32:05;25.58;;;10.65;;
74612;SDS011;63119;51.788;8.824;2023-11-18T03:34:31;26.95;;;10.57;;
74612;SDS011;63119;51.788;8.824;2023-11-18T03:36:56;29.77;;;10.90;;
74612;SDS011;63119;51.788;8.824;2023-11-18T03:39:21;29.92;;;11.43;;
74612;SDS011;63119;51.788;8.824;2023-11-18T03:41:47;29.27;;;11.27;;
74612;SDS011;63119;51.788;8.824;2023-11-18T03:44:12;29.57;;;11.37;;
74612;SDS011;63119;51.788;8.824;2023-11-18T03:46:37;32.97;;;11.77;;
74612;SDS011;63119;51.788;8.824;2023-11-18T03:49:03;29.33;;;11.00;;
74612;SDS011;63119;51.788;8.824;2023-11-18T03:51:28;30.02;;;12.23;;
74612;SDS011;63119;51.788;8.824;2023-11-18T03:53:54;28.63;;;11.40;;
74612;SDS011;63119;51.788;8.824;2023-11-18T03:56:19;28.87;;;11.53;;
74612;SDS011;63119;51.788;8.824;2023-11-18T03:58:44;32.88;;;11.63;;
74612;SDS011;63119;51.788;8.824;2023-11-18T04:01:19;28.55;;;10.70;;
74612;SDS011;63119;51.788;8.824;2023-11-18T04:03:45;31.17;;;12.10;;
74612;SDS011;63119;51.788;8.824;2023-11-18T04:06:10;28.57;;;11.37;;
74612;SDS011;63119;51.788;8.824;2023-11-18T04:08:36;24.67;;;10.40;;
74612;SDS011;63119;51.788;8.824;2023-11-18T04:11:01;20.57;;;9.33;;
74612;SDS011;63119;51.788;8.824;2023-11-18T04:13:27;26.95;;;10.18;;
74612;SDS011;63119;51.788;8.824;2023-11-18T04:15:52;28.93;;;11.13;;
74612;SDS011;63119;51.788;8.824;2023-11-18T04:18:17;25.57;;;9.83;;
74612;SDS011;63119;51.788;8.824;2023-11-18T04:20:44;25.13;;;10.30;;
74612;SDS011;63119;51.788;8.824;2023-11-18T04:23:09;19.73;;;9.67;;
74612;SDS011;63119;51.788;8.824;2023-11-18T04:25:36;22.25;;;10.27;;
74612;SDS011;63119;51.788;8.824;2023-11-18T04:28:02;25.30;;;10.40;;
74612;SDS011;63119;51.788;8.824;2023-11-18T04:30:27;26.30;;;10.37;;
74612;SDS011;63119;51.788;8.824;2023-11-18T04:32:52;25.10;;;9.17;;
74612;SDS011;63119;51.788;8.824;2023-11-18T04:35:17;22.63;;;8.27;;
74612;SDS011;63119;51.788;8.824;2023-11-18T04:37:43;25.70;;;9.77;;
74612;SDS011;63119;51.788;8.824;2023-11-18T04:40:10;27.48;;;9.95;;
74612;SDS011;63119;51.788;8.824;2023-11-18T04:42:36;24.17;;;9.02;;
74612;SDS011;63119;51.788;8.824;2023-11-18T04:45:02;24.10;;;9.30;;
74612;SDS011;63119;51.788;8.824;2023-11-18T04:47:28;28.58;;;9.45;;
74612;SDS011;63119;51.788;8.824;2023-11-18T04:49:55;25.70;;;9.68;;
74612;SDS011;63119;51.788;8.824;2023-11-18T04:52:20;21.13;;;8.97;;
74612;SDS011;63119;51.788;8.824;2023-11-18T04:54:45;26.27;;;8.90;;
74612;SDS011;63119;51.788;8.824;2023-11-18T04:57:13;25.30;;;9.90;;
74612;SDS011;63119;51.788;8.824;2023-11-18T04:59:38;21.42;;;9.40;;
74612;SDS011;63119;51.788;8.824;2023-11-18T05:02:03;20.83;;;8.50;;
74612;SDS011;63119;51.788;8.824;2023-11-18T05:04:29;27.73;;;9.73;;
74612;SDS011;63119;51.788;8.824;2023-11-18T05:06:54;19.17;;;9.15;;
74612;SDS011;63119;51.788;8.824;2023-11-18T05:09:20;23.40;;;9.30;;
74612;SDS011;63119;51.788;8.824;2023-11-18T05:11:45;25.77;;;10.43;;
74612;SDS011;63119;51.788;8.824;2023-11-18T05:14:11;20.75;;;9.70;;
74612;SDS011;63119;51.788;8.824;2023-11-18T05:16:36;23.10;;;10.33;;
74612;SDS011;63119;51.788;8.824;2023-11-18T05:19:01;24.97;;;9.30;;
74612;SDS011;63119;51.788;8.824;2023-11-18T05:21:27;24.50;;;9.48;;
74612;SDS011;63119;51.788;8.824;2023-11-18T05:23:52;24.73;;;9.07;;
74612;SDS011;63119;51.788;8.824;2023-11-18T05:26:17;23.23;;;8.43;;
74612;SDS011;63119;51.788;8.824;2023-11-18T05:28:43;20.15;;;7.35;;
74612;SDS011;63119;51.788;8.824;2023-11-18T05:31:10;18.70;;;7.63;;
74612;SDS011;63119;51.788;8.824;2023-11-18T05:33:35;21.95;;;9.07;;
74612;SDS011;63119;51.788;8.824;2023-11-18T05:36:01;22.27;;;8.43;;
74612;SDS011;63119;51.788;8.824;2023-11-18T05:38:29;17.08;;;7.53;;
74612;SDS011;63119;51.788;8.824;2023-11-18T05:40:59;20.05;;;8.32;;
74612;SDS011;63119;51.788;8.824;2023-11-18T05:43:27;21.38;;;8.30;;
74612;SDS011;63119;51.788;8.824;2023-11-18T05:48:45;19.60;;;7.93;;
74612;SDS011;63119;51.788;8.824;2023-11-18T05:51:10;21.70;;;8.05;;
74612;SDS011;63119;51.788;8.824;2023-11-18T05:53:39;18.95;;;7.72;;
74612;SDS011;63119;51.788;8.824;2023-11-18T05:56:10;18.45;;;8.07;;
74612;SDS011;63119;51.788;8.824;2023-11-18T05:58:39;20.38;;;7.90;;
74612;SDS011;63119;51.788;8.824;2023-11-18T06:01:05;20.27;;;8.07;;
74612;SDS011;63119;51.788;8.824;2023-11-18T06:03:33;21.48;;;8.00;;
74612;SDS011;63119;51.788;8.824;2023-11-18T06:05:58;21.17;;;8.05;;
74612;SDS011;63119;51.788;8.824;2023-11-18T06:08:23;16.87;;;6.73;;
74612;SDS011;63119;51.788;8.824;2023-11-18T06:10:49;15.40;;;7.47;;
74612;SDS011;63119;51.788;8.824;2023-11-18T06:13:16;17.75;;;8.00;;
74612;SDS011;63119;51.788;8.824;2023-11-18T06:15:42;19.10;;;7.05;;
74612;SDS011;63119;51.788;8.824;2023-11-18T06:18:08;22.77;;;7.75;;
74612;SDS011;63119;51.788;8.824;2023-11-18T06:20:34;20.98;;;8.30;;
74612;SDS011;63119;51.788;8.824;2023-11-18T06:23:00;21.30;;;8.05;;
74612;SDS011;63119;51.788;8.824;2023-11-18T06:25:26;18.08;;;6.90;;
74612;SDS011;63119;51.788;8.824;2023-11-18T06:27:51;21.53;;;7.77;;
74612;SDS011;63119;51.788;8.824;2023-11-18T06:30:20;16.85;;;7.07;;
74612;SDS011;63119;51.788;8.824;2023-11-18T06:32:45;18.50;;;6.75;;
74612;SDS011;63119;51.788;8.824;2023-11-18T06:35:14;15.68;;;6.47;;
74612;SDS011;63119;51.788;8.824;2023-11-18T06:40:08;17.83;;;6.67;;
74612;SDS011;63119;51.788;8.824;2023-11-18T06:42:41;14.77;;;6.43;;
74612;SDS011;63119;51.788;8.824;2023-11-18T06:45:13;24.42;;;8.75;;
74612;SDS011;63119;51.788;8.824;2023-11-18T06:47:39;19.08;;;7.25;;
74612;SDS011;63119;51.788;8.824;2023-11-18T06:50:08;17.98;;;7.00;;
74612;SDS011;63119;51.788;8.824;2023-11-18T06:52:36;15.70;;;6.90;;
74612;SDS011;63119;51.788;8.824;2023-11-18T06:55:03;15.38;;;6.95;;
74612;SDS011;63119;51.788;8.824;2023-11-18T06:57:29;15.38;;;7.25;;
74612;SDS011;63119;51.788;8.824;2023-11-18T06:59:54;17.63;;;6.77;;
74612;SDS011;63119;51.788;8.824;2023-11-18T07:02:20;15.67;;;6.97;;
74612;SDS011;63119;51.788;8.824;2023-11-18T07:04:46;19.15;;;6.65;;
74612;SDS011;63119;51.788;8.824;2023-11-18T07:07:11;14.67;;;6.93;;
74612;SDS011;63119;51.788;8.824;2023-11-18T07:09:37;17.90;;;6.60;;
74612;SDS011;63119;51.788;8.824;2023-11-18T07:12:02;18.77;;;7.87;;
74612;SDS011;63119;51.788;8.824;2023-11-18T07:14:28;20.92;;;7.78;;
74612;SDS011;63119;51.788;8.824;2023-11-18T07:16:54;13.63;;;6.55;;
74612;SDS011;63119;51.788;8.824;2023-11-18T07:19:19;20.98;;;7.35;;
74612;SDS011;63119;51.788;8.824;2023-11-18T07:21:46;22.45;;;7.95;;
74612;SDS011;63119;51.788;8.824;2023-11-18T07:24:11;16.95;;;6.38;;
74612;SDS011;63119;51.788;8.824;2023-11-18T07:26:37;20.00;;;7.88;;
74612;SDS011;63119;51.788;8.824;2023-11-18T07:29:02;18.05;;;7.30;;
74612;SDS011;63119;51.788;8.824;2023-11-18T07:31:27;13.63;;;7.23;;
74612;SDS011;63119;51.788;8.824;2023-11-18T07:33:54;18.00;;;7.20;;
74612;SDS011;63119;51.788;8.824;2023-11-18T07:36:19;18.48;;;7.45;;
74612;SDS011;63119;51.788;8.824;2023-11-18T07:38:46;15.82;;;7.70;;
74612;SDS011;63119;51.788;8.824;2023-11-18T07:41:12;18.65;;;8.13;;
74612;SDS011;63119;51.788;8.824;2023-11-18T07:43:48;19.20;;;7.88;;
74612;SDS011;63119;51.788;8.824;2023-11-18T07:46:21;16.58;;;8.15;;
74612;SDS011;63119;51.788;8.824;2023-11-18T07:48:47;16.45;;;7.47;;
74612;SDS011;63119;51.788;8.824;2023-11-18T07:51:16;17.90;;;8.73;;
74612;SDS011;63119;51.788;8.824;2023-11-18T07:53:42;19.83;;;8.90;;
74612;SDS011;63119;51.788;8.824;2023-11-18T07:56:08;24.33;;;9.40;;
74612;SDS011;63119;51.788;8.824;2023-11-18T07:58:37;17.90;;;8.10;;
74612;SDS011;63119;51.788;8.824;2023-11-18T08:01:03;16.73;;;8.80;;
74612;SDS011;63119;51.788;8.824;2023-11-18T08:03:32;20.45;;;9.38;;
74612;SDS011;63119;51.788;8.824;2023-11-18T08:05:58;17.13;;;8.35;;
74612;SDS011;63119;51.788;8.824;2023-11-18T08:08:23;19.63;;;8.52;;
74612;SDS011;63119;51.788;8.824;2023-11-18T08:10:48;13.73;;;6.87;;
74612;SDS011;63119;51.788;8.824;2023-11-18T08:13:15;14.50;;;7.05;;
74612;SDS011;63119;51.788;8.824;2023-11-18T08:15:41;16.50;;;7.40;;
74612;SDS011;63119;51.788;8.824;2023-11-18T08:18:10;19.83;;;8.82;;
74612;SDS011;63119;51.788;8.824;2023-11-18T08:20:35;20.70;;;7.88;;
74612;SDS011;63119;51.788;8.824;2023-11-18T08:23:01;17.45;;;8.32;;
74612;SDS011;63119;51.788;8.824;2023-11-18T08:25:26;19.05;;;7.82;;
74612;SDS011;63119;51.788;8.824;2023-11-18T08:27:52;13.47;;;6.50;;
74612;SDS011;63119;51.788;8.824;2023-11-18T08:30:17;14.33;;;7.27;;
74612;SDS011;63119;51.788;8.824;2023-11-18T08:32:44;16.00;;;6.88;;
74612;SDS011;63119;51.788;8.824;2023-11-18T08:35:13;19.23;;;7.78;;
74612;SDS011;63119;51.788;8.824;2023-11-18T08:37:42;19.40;;;7.10;;
74612;SDS011;63119;51.788;8.824;2023-11-18T08:40:08;16.02;;;7.07;;
74612;SDS011;63119;51.788;8.824;2023-11-18T08:42:43;15.77;;;8.00;;
74612;SDS011;63119;51.788;8.824;2023-11-18T08:45:15;12.73;;;7.20;;
74612;SDS011;63119;51.788;8.824;2023-11-18T08:47:44;15.30;;;7.10;;
74612;SDS011;63119;51.788;8.824;2023-11-18T08:50:11;13.73;;;6.75;;
74612;SDS011;63119;51.788;8.824;2023-11-18T08:52:38;16.92;;;7.45;;
74612;SDS011;63119;51.788;8.824;2023-11-18T08:55:08;11.20;;;6.40;;
74612;SDS011;63119;51.788;8.824;2023-11-18T08:57:46;15.05;;;7.75;;
74612;SDS011;63119;51.788;8.824;2023-11-18T09:00:27;16.48;;;8.18;;
74612;SDS011;63119;51.788;8.824;2023-11-18T09:03:12;16.23;;;8.68;;
74612;SDS011;63119;51.788;8.824;2023-11-18T09:05:54;16.65;;;8.55;;
74612;SDS011;63119;51.788;8.824;2023-11-18T09:08:22;17.65;;;8.70;;
74612;SDS011;63119;51.788;8.824;2023-11-18T09:10:53;18.75;;;9.45;;
74612;SDS011;63119;51.788;8.824;2023-11-18T09:13:20;21.55;;;8.15;;
74612;SDS011;63119;51.788;8.824;2023-11-18T09:15:47;12.65;;;5.63;;
74612;SDS011;63119;51.788;8.824;2023-11-18T09:18:13;12.05;;;4.05;;
74612;SDS011;63119;51.788;8.824;2023-11-18T09:20:38;8.70;;;3.67;;
74612;SDS011;63119;51.788;8.824;2023-11-18T09:23:04;5.60;;;3.38;;
74612;SDS011;63119;51.788;8.824;2023-11-18T09:25:31;8.00;;;3.13;;
74612;SDS011;63119;51.788;8.824;2023-11-18T09:27:57;5.93;;;3.65;;
74612;SDS011;63119;51.788;8.824;2023-11-18T09:30:23;6.15;;;2.95;;
74612;SDS011;63119;51.788;8.824;2023-11-18T09:32:49;7.45;;;3.42;;
74612;SDS011;63119;51.788;8.824;2023-11-18T09:35:16;7.07;;;3.45;;
74612;SDS011;63119;51.788;8.824;2023-11-18T09:37:43;7.28;;;3.15;;
74612;SDS011;63119;51.788;8.824;2023-11-18T09:40:18;6.40;;;3.60;;
74612;SDS011;63119;51.788;8.824;2023-11-18T09:42:49;8.32;;;4.00;;
74612;SDS011;63119;51.788;8.824;2023-11-18T09:45:16;7.43;;;4.18;;
74612;SDS011;63119;51.788;8.824;2023-11-18T09:47:45;7.00;;;3.70;;
74612;SDS011;63119;51.788;8.824;2023-11-18T09:50:16;5.78;;;3.33;;
74612;SDS011;63119;51.788;8.824;2023-11-18T09:52:47;5.78;;;3.88;;
74612;SDS011;63119;51.788;8.824;2023-11-18T09:55:29;6.38;;;3.28;;
74612;SDS011;63119;51.788;8.824;2023-11-18T09:58:04;8.10;;;4.13;;
74612;SDS011;63119;51.788;8.824;2023-11-18T10:00:33;8.00;;;3.95;;
74612;SDS011;63119;51.788;8.824;2023-11-18T10:03:06;8.27;;;4.90;;
74612;SDS011;63119;51.788;8.824;2023-11-18T10:05:34;8.57;;;3.88;;
74612;SDS011;63119;51.788;8.824;2023-11-18T10:08:02;7.40;;;3.92;;
74612;SDS011;63119;51.788;8.824;2023-11-18T10:10:30;8.00;;;4.00;;
74612;SDS011;63119;51.788;8.824;2023-11-18T10:13:01;6.75;;;3.85;;
74612;SDS011;63119;51.788;8.824;2023-11-18T10:15:29;8.45;;;4.13;;
74612;SDS011;63119;51.788;8.824;2023-11-18T10:17:56;10.30;;;4.25;;
74612;SDS011;63119;51.788;8.824;2023-11-18T10:23:13;8.55;;;4.43;;
74612;SDS011;63119;51.788;8.824;2023-11-18T10:25:48;10.63;;;5.03;;
74612;SDS011;63119;51.788;8.824;2023-11-18T10:28:27;9.20;;;4.85;;
74612;SDS011;63119;51.788;8.824;2023-11-18T10:31:02;6.50;;;3.90;;
74612;SDS011;63119;51.788;8.824;2023-11-18T10:33:28;7.65;;;4.32;;
74612;SDS011;63119;51.788;8.824;2023-11-18T10:35:58;8.55;;;4.40;;
74612;SDS011;63119;51.788;8.824;2023-11-18T10:38:23;8.43;;;4.20;;
74612;SDS011;63119;51.788;8.824;2023-11-18T10:43:18;10.70;;;4.22;;
74612;SDS011;63119;51.788;8.824;2023-11-18T10:45:43;8.23;;;4.67;;
74612;SDS011;63119;51.788;8.824;2023-11-18T10:48:11;10.02;;;4.88;;
74612;SDS011;63119;51.788;8.824;2023-11-18T10:50:41;9.20;;;5.22;;
74612;SDS011;63119;51.788;8.824;2023-11-18T10:53:07;9.70;;;5.05;;
74612;SDS011;63119;51.788;8.824;2023-11-18T10:55:39;11.32;;;4.97;;
74612;SDS011;63119;51.788;8.824;2023-11-18T10:58:05;9.60;;;5.30;;
74612;SDS011;63119;51.788;8.824;2023-11-18T11:00:50;10.52;;;4.72;;
74612;SDS011;63119;51.788;8.824;2023-11-18T11:03:20;10.55;;;4.55;;
74612;SDS011;63119;51.788;8.824;2023-11-18T11:05:48;10.15;;;4.78;;
74612;SDS011;63119;51.788;8.824;2023-11-18T11:08:14;8.73;;;4.82;;
74612;SDS011;63119;51.788;8.824;2023-11-18T11:10:41;8.20;;;4.55;;
74612;SDS011;63119;51.788;8.824;2023-11-18T11:13:10;10.43;;;5.20;;
74612;SDS011;63119;51.788;8.824;2023-11-18T11:15:41;12.48;;;6.28;;
74612;SDS011;63119;51.788;8.824;2023-11-18T11:18:10;13.07;;;5.55;;
74612;SDS011;63119;51.788;8.824;2023-11-18T11:20:50;9.50;;;5.00;;
74612;SDS011;63119;51.788;8.824;2023-11-18T11:29:25;13.52;;;6.38;;
74612;SDS011;63119;51.788;8.824;2023-11-18T11:35:03;11.13;;;5.30;;
74612;SDS011;63119;51.788;8.824;2023-11-18T11:37:34;9.57;;;5.20;;
74612;SDS011;63119;51.788;8.824;2023-11-18T11:40:01;10.63;;;4.95;;
74612;SDS011;63119;51.788;8.824;2023-11-18T11:42:34;13.43;;;6.45;;
74612;SDS011;63119;51.788;8.824;2023-11-18T11:44:59;12.07;;;5.55;;
74612;SDS011;63119;51.788;8.824;2023-11-18T11:47:26;9.18;;;4.93;;
74612;SDS011;63119;51.788;8.824;2023-11-18T11:50:07;11.52;;;5.65;;
74612;SDS011;63119;51.788;8.824;2023-11-18T11:52:40;10.23;;;5.60;;
74612;SDS011;63119;51.788;8.824;2023-11-18T11:55:15;9.80;;;4.68;;
74612;SDS011;63119;51.788;8.824;2023-11-18T11:57:52;8.68;;;4.13;;
74612;SDS011;63119;51.788;8.824;2023-11-18T12:00:23;9.35;;;5.35;;
74612;SDS011;63119;51.788;8.824;2023-11-18T12:02:51;7.50;;;4.07;;
74612;SDS011;63119;51.788;8.824;2023-11-18T12:05:24;13.18;;;5.85;;
74612;SDS011;63119;51.788;8.824;2023-11-18T12:07:52;10.65;;;5.03;;
74612;SDS011;63119;51.788;8.824;2023-11-18T12:10:20;8.52;;;4.15;;
74612;SDS011;63119;51.788;8.824;2023-11-18T12:12:47;10.40;;;5.00;;
74612;SDS011;63119;51.788;8.824;2023-11-18T12:15:12;10.90;;;4.35;;
74612;SDS011;63119;51.788;8.824;2023-11-18T12:23:09;9.02;;;4.10;;
74612;SDS011;63119;51.788;8.824;2023-11-18T12:25:44;5.82;;;3.70;;
74612;SDS011;63119;51.788;8.824;2023-11-18T12:28:16;7.90;;;3.90;;
74612;SDS011;63119;51.788;8.824;2023-11-18T12:30:46;7.07;;;4.13;;
74612;SDS011;63119;51.788;8.824;2023-11-18T12:33:18;7.65;;;3.30;;
74612;SDS011;63119;51.788;8.824;2023-11-18T12:40:50;6.70;;;3.47;;
74612;SDS011;63119;51.788;8.824;2023-11-18T12:43:24;5.97;;;3.45;;
74612;SDS011;63119;51.788;8.824;2023-11-18T12:46:14;8.10;;;3.58;;
74612;SDS011;63119;51.788;8.824;2023-11-18T12:49:04;5.10;;;2.55;;
74612;SDS011;63119;51.788;8.824;2023-11-18T12:51:30;6.80;;;2.80;;
74612;SDS011;63119;51.788;8.824;2023-11-18T12:53:59;6.07;;;3.60;;
74612;SDS011;63119;51.788;8.824;2023-11-18T12:56:27;5.13;;;2.42;;
74612;SDS011;63119;51.788;8.824;2023-11-18T12:58:55;5.32;;;2.40;;
74612;SDS011;63119;51.788;8.824;2023-11-18T13:01:20;6.78;;;2.97;;
74612;SDS011;63119;51.788;8.824;2023-11-18T13:03:47;6.82;;;3.28;;
74612;SDS011;63119;51.788;8.824;2023-11-18T13:06:12;6.87;;;3.30;;
74612;SDS011;63119;51.788;8.824;2023-11-18T13:08:39;6.53;;;2.80;;
74612;SDS011;63119;51.788;8.824;2023-11-18T13:11:05;6.90;;;3.08;;
74612;SDS011;63119;51.788;8.824;2023-11-18T13:13:35;5.15;;;2.50;;
74612;SDS011;63119;51.788;8.824;2023-11-18T13:16:00;7.32;;;3.08;;
74612;SDS011;63119;51.788;8.824;2023-11-18T13:18:27;8.10;;;3.33;;
74612;SDS011;63119;51.788;8.824;2023-11-18T13:20:53;9.10;;;3.08;;
74612;SDS011;63119;51.788;8.824;2023-11-18T13:23:20;5.13;;;2.88;;
74612;SDS011;63119;51.788;8.824;2023-11-18T13:25:45;5.72;;;3.13;;
74612;SDS011;63119;51.788;8.824;2023-11-18T13:28:12;6.72;;;3.05;;
74612;SDS011;63119;51.788;8.824;2023-11-18T13:30:38;8.57;;;3.33;;
74612;SDS011;63119;51.788;8.824;2023-11-18T13:33:04;10.70;;;4.05;;
74612;SDS011;63119;51.788;8.824;2023-11-18T13:35:30;5.63;;;2.90;;
74612;SDS011;63119;51.788;8.824;2023-11-18T13:37:55;5.40;;;2.88;;
74612;SDS011;63119;51.788;8.824;2023-11-18T13:40:22;5.60;;;3.28;;
74612;SDS011;63119;51.788;8.824;2023-11-18T13:42:48;8.55;;;3.20;;
74612;SDS011;63119;51.788;8.824;2023-11-18T13:45:26;6.93;;;3.70;;
74612;SDS011;63119;51.788;8.824;2023-11-18T13:47:55;7.47;;;3.67;;
74612;SDS011;63119;51.788;8.824;2023-11-18T13:50:22;5.75;;;3.38;;
74612;SDS011;63119;51.788;8.824;2023-11-18T13:52:47;5.70;;;3.03;;
74612;SDS011;63119;51.788;8.824;2023-11-18T13:55:14;7.55;;;3.72;;
74612;SDS011;63119;51.788;8.824;2023-11-18T13:57:55;7.53;;;3.65;;
74612;SDS011;63119;51.788;8.824;2023-11-18T14:00:23;6.80;;;3.67;;
74612;SDS011;63119;51.788;8.824;2023-11-18T14:02:51;9.05;;;4.07;;
74612;SDS011;63119;51.788;8.824;2023-11-18T14:05:18;8.23;;;3.70;;
74612;SDS011;63119;51.788;8.824;2023-11-18T14:07:52;8.48;;;4.40;;
74612;SDS011;63119;51.788;8.824;2023-11-18T14:10:24;7.00;;;3.58;;
74612;SDS011;63119;51.788;8.824;2023-11-18T14:13:00;10.05;;;5.07;;
74612;SDS011;63119;51.788;8.824;2023-11-18T14:15:31;9.27;;;5.38;;
74612;SDS011;63119;51.788;8.824;2023-11-18T14:18:01;8.95;;;4.43;;
74612;SDS011;63119;51.788;8.824;2023-11-18T14:20:27;14.45;;;5.22;;
74612;SDS011;63119;51.788;8.824;2023-11-18T14:22:52;10.90;;;4.87;;
74612;SDS011;63119;51.788;8.824;2023-11-18T14:25:17;9.63;;;5.03;;
74612;SDS011;63119;51.788;8.824;2023-11-18T14:27:43;9.77;;;4.73;;
74612;SDS011;63119;51.788;8.824;2023-11-18T14:30:08;10.70;;;5.32;;
74612;SDS011;63119;51.788;8.824;2023-11-18T14:32:34;10.07;;;4.72;;
74612;SDS011;63119;51.788;8.824;2023-11-18T14:35:00;9.10;;;4.18;;
74612;SDS011;63119;51.788;8.824;2023-11-18T14:37:26;10.55;;;5.22;;
74612;SDS011;63119;51.788;8.824;2023-11-18T14:39:51;10.67;;;4.93;;
74612;SDS011;63119;51.788;8.824;2023-11-18T14:42:19;13.25;;;5.13;;
74612;SDS011;63119;51.788;8.824;2023-11-18T14:44:46;10.98;;;5.05;;
74612;SDS011;63119;51.788;8.824;2023-11-18T14:47:11;10.98;;;5.28;;
74612;SDS011;63119;51.788;8.824;2023-11-18T14:49:37;13.15;;;6.03;;
74612;SDS011;63119;51.788;8.824;2023-11-18T14:52:02;10.27;;;4.77;;
74612;SDS011;63119;51.788;8.824;2023-11-18T14:54:29;12.25;;;5.45;;
74612;SDS011;63119;51.788;8.824;2023-11-18T14:57:00;10.25;;;5.00;;
74612;SDS011;63119;51.788;8.824;2023-11-18T14:59:25;10.67;;;4.73;;
74612;SDS011;63119;51.788;8.824;2023-11-18T15:01:52;9.05;;;4.32;;
74612;SDS011;63119;51.788;8.824;2023-11-18T15:04:22;10.73;;;4.88;;
74612;SDS011;63119;51.788;8.824;2023-11-18T15:06:48;12.65;;;5.78;;
74612;SDS011;63119;51.788;8.824;2023-11-18T15:09:17;9.35;;;4.72;;
74612;SDS011;63119;51.788;8.824;2023-11-18T15:11:42;11.37;;;4.27;;